Time;durP1;ratioP1;P1;durP2;ratioP2;P2;SDS_P1;SDS_P2;PMS_P1;PMS_P2;Temp;Humidity;BMP_temperature;BMP_pressure;BME280_temperature;BME280_humidity;BME280_pressure;Samples;Min_cycle;Max_cycle;Signal;HPM_P1;HPM_P2
2019/12/16 00:01:14;;;;;;;8.4;4.5;;;;;;;;;;;;;
2019/12/16 00:03:37;;;;;;;11.7;5.9;;;;;;;;;;;;;
2019/12/16 00:06:05;;;;;;;9.7;5.7;;;;;;;;;;;;;
2019/12/16 00:08:30;;;;;;;10.5;5.8;;;;;;;;;;;;;
2019/12/16 00:10:55;;;;;;;9.8;5.4;;;;;;;;;;;;;
2019/12/16 00:13:17;;;;;;;9.7;5.3;;;;;;;;;;;;;
2019/12/16 00:15:50;;;;;;;7.9;4.7;;;;;;;;;;;;;
2019/12/16 00:18:15;;;;;;;6.9;4.4;;;;;;;;;;;;;
2019/12/16 00:20:46;;;;;;;6.1;3.9;;;;;;;;;;;;;
2019/12/16 00:23:11;;;;;;;6.7;4;;;;;;;;;;;;;
2019/12/16 00:25:33;;;;;;;7.3;4.1;;;;;;;;;;;;;
2019/12/16 00:28:02;;;;;;;9.3;5.2;;;;;;;;;;;;;
2019/12/16 00:30:25;;;;;;;7.8;4.2;;;;;;;;;;;;;
2019/12/16 00:33:02;;;;;;;11.3;6.3;;;;;;;;;;;;;
2019/12/16 00:35:42;;;;;;;13.5;6.9;;;;;;;;;;;;;
2019/12/16 00:38:05;;;;;;;9.3;4.7;;;;;;;;;;;;;
2019/12/16 00:40:30;;;;;;;5.8;3.3;;;;;;;;;;;;;
2019/12/16 00:42:56;;;;;;;4.8;2.9;;;;;;;;;;;;;
2019/12/16 00:45:25;;;;;;;7;3.6;;;;;;;;;;;;;
2019/12/16 00:50:29;;;;;;;7.6;4.1;;;;;;;;;;;;;
2019/12/16 00:52:59;;;;;;;5.3;3.4;;;;;;;;;;;;;
2019/12/16 00:55:24;;;;;;;5.8;3.6;;;;;;;;;;;;;
2019/12/16 00:57:49;;;;;;;6.2;4;;;;;;;;;;;;;
2019/12/16 01:00:16;;;;;;;5;2.9;;;;;;;;;;;;;
2019/12/16 01:02:41;;;;;;;6.1;3.4;;;;;;;;;;;;;
2019/12/16 01:05:05;;;;;;;7;4;;;;;;;;;;;;;
2019/12/16 01:07:30;;;;;;;4.9;3.1;;;;;;;;;;;;;
2019/12/16 01:10:21;;;;;;;4.5;2.6;;;;;;;;;;;;;
2019/12/16 01:12:23;;;;;;;3.7;2.5;;;;;;;;;;;;;
2019/12/16 01:14:47;;;;;;;3.6;2.6;;;;;;;;;;;;;
2019/12/16 01:17:16;;;;;;;4.5;2.8;;;;;;;;;;;;;
2019/12/16 01:19:43;;;;;;;4.7;3;;;;;;;;;;;;;
2019/12/16 01:22:06;;;;;;;4.2;2.3;;;;;;;;;;;;;
2019/12/16 01:24:34;;;;;;;4.6;2.7;;;;;;;;;;;;;
2019/12/16 01:27:02;;;;;;;4.1;2.6;;;;;;;;;;;;;
2019/12/16 01:29:23;;;;;;;3.4;2.5;;;;;;;;;;;;;
2019/12/16 01:32:22;;;;;;;4.3;2.5;;;;;;;;;;;;;
2019/12/16 01:34:49;;;;;;;4.9;2.9;;;;;;;;;;;;;
2019/12/16 01:37:12;;;;;;;3.9;2.2;;;;;;;;;;;;;
2019/12/16 01:39:37;;;;;;;2.8;2.1;;;;;;;;;;;;;
2019/12/16 01:42:04;;;;;;;3.4;2.3;;;;;;;;;;;;;
2019/12/16 01:44:29;;;;;;;3.4;2.3;;;;;;;;;;;;;
2019/12/16 01:46:55;;;;;;;3.9;2.2;;;;;;;;;;;;;
2019/12/16 01:49:27;;;;;;;3.7;2.1;;;;;;;;;;;;;
2019/12/16 01:51:48;;;;;;;2.4;1.7;;;;;;;;;;;;;
2019/12/16 01:54:13;;;;;;;3.3;1.9;;;;;;;;;;;;;
2019/12/16 02:01:30;;;;;;;3.9;2.4;;;;;;;;;;;;;
2019/12/16 02:03:55;;;;;;;2.8;1.6;;;;;;;;;;;;;
2019/12/16 02:06:27;;;;;;;1.9;1.2;;;;;;;;;;;;;
2019/12/16 02:08:49;;;;;;;3.2;1.3;;;;;;;;;;;;;
2019/12/16 02:11:19;;;;;;;2.5;1.4;;;;;;;;;;;;;
2019/12/16 02:13:47;;;;;;;2.3;1.6;;;;;;;;;;;;;
2019/12/16 02:16:09;;;;;;;2.1;1.3;;;;;;;;;;;;;
2019/12/16 02:18:34;;;;;;;2.7;1.7;;;;;;;;;;;;;
2019/12/16 02:21:02;;;;;;;3;1.8;;;;;;;;;;;;;
2019/12/16 02:23:31;;;;;;;3.4;1.9;;;;;;;;;;;;;
2019/12/16 02:25:59;;;;;;;2.7;1.7;;;;;;;;;;;;;
2019/12/16 02:28:22;;;;;;;4.3;2.2;;;;;;;;;;;;;
2019/12/16 02:30:52;;;;;;;3.1;2.2;;;;;;;;;;;;;
2019/12/16 02:33:18;;;;;;;3.8;2.3;;;;;;;;;;;;;
2019/12/16 02:35:47;;;;;;;3.9;2.6;;;;;;;;;;;;;
2019/12/16 02:38:11;;;;;;;3.8;2.5;;;;;;;;;;;;;
2019/12/16 02:40:37;;;;;;;4.5;2.4;;;;;;;;;;;;;
2019/12/16 02:43:11;;;;;;;3.5;2.1;;;;;;;;;;;;;
2019/12/16 02:45:41;;;;;;;3.4;2.2;;;;;;;;;;;;;
2019/12/16 02:48:13;;;;;;;3.8;2.3;;;;;;;;;;;;;
2019/12/16 02:50:38;;;;;;;4.2;2.2;;;;;;;;;;;;;
2019/12/16 02:52:52;;;;;;;2.9;1.5;;;;;;;;;;;;;
2019/12/16 02:55:34;;;;;;;2.5;1.6;;;;;;;;;;;;;
2019/12/16 02:58:00;;;;;;;2.6;1.6;;;;;;;;;;;;;
2019/12/16 03:00:31;;;;;;;2.4;1.6;;;;;;;;;;;;;
2019/12/16 03:02:53;;;;;;;3.3;1.8;;;;;;;;;;;;;
2019/12/16 03:05:16;;;;;;;3.2;1.7;;;;;;;;;;;;;
2019/12/16 03:07:48;;;;;;;3.2;1.9;;;;;;;;;;;;;
2019/12/16 03:10:07;;;;;;;2.4;1.8;;;;;;;;;;;;;
2019/12/16 03:13:21;;;;;;;4.3;2.1;;;;;;;;;;;;;
2019/12/16 03:15:05;;;;;;;2.9;2;;;;;;;;;;;;;
2019/12/16 03:17:29;;;;;;;3.3;1.8;;;;;;;;;;;;;
2019/12/16 03:19:56;;;;;;;3.7;2;;;;;;;;;;;;;
2019/12/16 03:22:28;;;;;;;2.9;2;;;;;;;;;;;;;
2019/12/16 03:28:00;;;;;;;3.2;2;;;;;;;;;;;;;
2019/12/16 03:29:46;;;;;;;3;1.9;;;;;;;;;;;;;
2019/12/16 03:32:19;;;;;;;4;2.1;;;;;;;;;;;;;
2019/12/16 03:34:40;;;;;;;3.8;1.9;;;;;;;;;;;;;
2019/12/16 03:37:17;;;;;;;3.1;1.7;;;;;;;;;;;;;
2019/12/16 03:39:48;;;;;;;3.4;1.7;;;;;;;;;;;;;
2019/12/16 03:42:15;;;;;;;3.1;1.8;;;;;;;;;;;;;
2019/12/16 03:44:41;;;;;;;2.6;1.8;;;;;;;;;;;;;
2019/12/16 03:47:03;;;;;;;3.1;1.7;;;;;;;;;;;;;
2019/12/16 03:49:31;;;;;;;2.7;1.7;;;;;;;;;;;;;
2019/12/16 03:52:19;;;;;;;3.3;2;;;;;;;;;;;;;
2019/12/16 03:54:25;;;;;;;3.1;1.6;;;;;;;;;;;;;
2019/12/16 03:56:53;;;;;;;3.2;1.8;;;;;;;;;;;;;
2019/12/16 03:59:19;;;;;;;3.7;2.1;;;;;;;;;;;;;
2019/12/16 04:02:42;;;;;;;4.1;2.3;;;;;;;1.68;85.44531;932.8953;;;;
2019/12/16 04:05:10;;;;;;;8;5.4;;;;;;;1.74;85.1543;932.8508;;;;
2019/12/16 04:07:42;;;;;;;7.8;5.3;;;;;;;1.99;84.00684;932.9058;;;;
2019/12/16 04:10:10;;;;;;;4.8;2.9;;;;;;;;;;;;;
2019/12/16 04:12:37;;;;;;;3.4;2.4;;;;;;;;;;;;;
2019/12/16 04:15:04;;;;;;;2.9;2;;;;;;;;;;;;;
2019/12/16 04:17:30;;;;;;;2.9;2.2;;;;;;;;;;;;;
2019/12/16 04:19:55;;;;;;;4.9;2.5;;;;;;;;;;;;;
2019/12/16 14:02:56;;;;;;;6.1;1.1;;;;;;;;;;;;;
2019/12/16 14:07:35;;;;;;;9.1;2.7;;;;;;;;;;;;;
2019/12/16 14:10:17;;;;;;;9.5;2.3;;;;;;;;;;;;;
2019/12/16 14:12:28;;;;;;;19.4;2.7;;;;;;;;;;;;;
2019/12/16 14:15:16;;;;;;;11.5;3.1;;;;;;;;;;;;;
2019/12/16 14:17:24;;;;;;;7.7;2.2;;;;;;;;;;;;;
2019/12/16 14:19:52;;;;;;;5.1;2.7;;;;;;;;;;;;;
2019/12/16 14:22:20;;;;;;;9.8;2.6;;;;;;;;;;;;;
2019/12/16 14:24:42;;;;;;;15.2;2.6;;;;;;;;;;;;;
2019/12/16 14:27:07;;;;;;;7.8;2.3;;;;;;;;;;;;;
2019/12/16 14:29:33;;;;;;;7.9;2.4;;;;;;;;;;;;;
2019/12/16 14:32:02;;;;;;;8.9;1.8;;;;;;;;;;;;;
2019/12/16 14:34:25;;;;;;;2.7;1.5;;;;;;;;;;;;;
2019/12/16 14:36:54;;;;;;;8.4;1.1;;;;;;;;;;;;;
2019/12/16 14:39:14;;;;;;;7.9;1.8;;;;;;;;;;;;;
2019/12/16 14:41:39;;;;;;;3.2;0.9;;;;;;;;;;;;;
2019/12/16 14:44:15;;;;;;;5.5;1.1;;;;;;;;;;;;;
2019/12/16 14:46:40;;;;;;;7.9;1;;;;;;;;;;;;;
2019/12/16 14:49:08;;;;;;;3.8;1;;;;;;;;;;;;;
2019/12/16 14:51:35;;;;;;;7.3;1.4;;;;;;;;;;;;;
2019/12/16 14:53:57;;;;;;;6.2;1.5;;;;;;;;;;;;;
2019/12/16 14:56:20;;;;;;;9.5;1.9;;;;;;;;;;;;;
2019/12/16 14:58:46;;;;;;;6.7;1.7;;;;;;;;;;;;;
2019/12/16 15:01:12;;;;;;;7.3;2.9;;;;;;;;;;;;;
2019/12/16 15:03:42;;;;;;;9.5;2.5;;;;;;;;;;;;;
2019/12/16 15:06:07;;;;;;;7.8;4.7;;;;;;;;;;;;;
2019/12/16 15:08:33;;;;;;;16.7;3.6;;;;;;;;;;;;;
2019/12/16 15:10:59;;;;;;;16.9;2.3;;;;;;;;;;;;;
2019/12/16 15:13:29;;;;;;;14.6;2.1;;;;;;;;;;;;;
2019/12/16 15:18:16;;;;;;;5.2;1.9;;;;;;;;;;;;;
2019/12/16 15:20:37;;;;;;;6.3;2.2;;;;;;;;;;;;;
2019/12/16 15:23:05;;;;;;;13;5.7;;;;;;;;;;;;;
2019/12/16 15:25:32;;;;;;;8.6;2.4;;;;;;;;;;;;;
2019/12/16 15:27:54;;;;;;;6.8;2.5;;;;;;;;;;;;;
2019/12/16 15:30:20;;;;;;;25.3;3.6;;;;;;;;;;;;;
2019/12/16 15:32:44;;;;;;;7.1;1.9;;;;;;;;;;;;;
2019/12/16 15:35:12;;;;;;;6.3;1.6;;;;;;;;;;;;;
2019/12/16 15:37:37;;;;;;;11;5.2;;;;;;;;;;;;;
2019/12/16 15:40:05;;;;;;;11.3;5.3;;;;;;;;;;;;;
2019/12/16 15:42:27;;;;;;;12.6;2.3;;;;;;;;;;;;;
2019/12/16 15:44:52;;;;;;;6.8;1.6;;;;;;;;;;;;;
2019/12/16 15:47:21;;;;;;;5.5;1.6;;;;;;;;;;;;;
2019/12/16 15:49:44;;;;;;;14.8;5.6;;;;;;;;;;;;;
2019/12/16 15:52:08;;;;;;;6.7;3.8;;;;;;;;;;;;;
2019/12/16 15:54:40;;;;;;;8;3.1;;;;;;;;;;;;;
2019/12/16 15:56:57;;;;;;;8.6;2.4;;;;;;;;;;;;;
2019/12/16 15:59:26;;;;;;;8;1.9;;;;;;;;;;;;;
2019/12/16 16:01:55;;;;;;;5.1;1.5;;;;;;;;;;;;;
2019/12/16 16:04:21;;;;;;;1.6;0.7;;;;;;;;;;;;;
2019/12/16 16:06:43;;;;;;;13.6;1.7;;;;;;;;;;;;;
2019/12/16 16:09:06;;;;;;;12.9;1.9;;;;;;;;;;;;;
2019/12/16 16:11:31;;;;;;;14.7;2.5;;;;;;;;;;;;;
2019/12/16 16:13:58;;;;;;;8.6;2.7;;;;;;;;;;;;;
2019/12/16 16:16:24;;;;;;;14.7;3.9;;;;;;;;;;;;;
2019/12/16 16:18:46;;;;;;;6.2;2.3;;;;;;;;;;;;;
2019/12/16 16:21:12;;;;;;;7.2;2.6;;;;;;;;;;;;;
2019/12/16 16:23:37;;;;;;;3.5;1.2;;;;;;;;;;;;;
2019/12/16 16:26:04;;;;;;;3.4;1.3;;;;;;;;;;;;;
2019/12/16 16:28:28;;;;;;;2.4;0.9;;;;;;;;;;;;;
2019/12/16 16:30:52;;;;;;;17.2;1.9;;;;;;;;;;;;;
2019/12/16 16:33:20;;;;;;;7.5;1.5;;;;;;;;;;;;;
2019/12/16 16:35:45;;;;;;;4.4;1.1;;;;;;;;;;;;;
2019/12/16 16:38:09;;;;;;;7.4;3.1;;;;;;;;;;;;;
2019/12/16 16:40:33;;;;;;;6.5;3.2;;;;;;;;;;;;;
2019/12/16 16:43:01;;;;;;;9.5;3.9;;;;;;;;;;;;;
2019/12/16 16:45:24;;;;;;;9.4;3.9;;;;;;;;;;;;;
2019/12/16 16:47:53;;;;;;;16.8;4.2;;;;;;;;;;;;;
2019/12/16 16:50:16;;;;;;;5.9;2;;;;;;;;;;;;;
2019/12/16 16:52:39;;;;;;;10.5;4.7;;;;;;;;;;;;;
2019/12/16 16:55:36;;;;;;;7.6;2.3;;;;;;;;;;;;;
2019/12/16 16:57:59;;;;;;;11.6;2.2;;;;;;;;;;;;;
2019/12/16 17:00:06;;;;;;;7.2;3.1;;;;;;;;;;;;;
2019/12/16 17:02:23;;;;;;;8.5;3.3;;;;;;;;;;;;;
2019/12/16 17:04:52;;;;;;;10.1;3.3;;;;;;;;;;;;;
2019/12/16 17:07:17;;;;;;;12.5;5.5;;;;;;;;;;;;;
2019/12/16 17:09:44;;;;;;;13.9;7;;;;;;;;;;;;;
2019/12/16 17:12:09;;;;;;;29.7;10.6;;;;;;;;;;;;;
2019/12/16 17:14:34;;;;;;;22.6;6.8;;;;;;;;;;;;;
2019/12/16 17:16:59;;;;;;;13.2;5.1;;;;;;;;;;;;;
2019/12/16 17:19:32;;;;;;;32;10.5;;;;;;;;;;;;;
2019/12/16 17:21:49;;;;;;;13.6;7.4;;;;;;;;;;;;;
2019/12/16 17:24:14;;;;;;;11.8;6.2;;;;;;;;;;;;;
2019/12/16 17:26:39;;;;;;;5.2;2;;;;;;;;;;;;;
2019/12/16 17:29:22;;;;;;;10;4.9;;;;;;;;;;;;;
2019/12/16 17:31:46;;;;;;;10.9;5.3;;;;;;;;;;;;;
2019/12/16 17:34:20;;;;;;;7.9;4;;;;;;;;;;;;;
2019/12/16 17:36:50;;;;;;;7.4;2.1;;;;;;;;;;;;;
2019/12/16 17:39:15;;;;;;;7.1;5.4;;;;;;;;;;;;;
2019/12/16 17:41:47;;;;;;;7.1;2.4;;;;;;;;;;;;;
2019/12/16 17:44:09;;;;;;;11.6;3.7;;;;;;;;;;;;;
2019/12/16 17:46:53;;;;;;;5.9;1.7;;;;;;;;;;;;;
2019/12/16 17:49:04;;;;;;;10.9;2;;;;;;;;;;;;;
2019/12/16 17:51:25;;;;;;;9.8;6;;;;;;;;;;;;;
2019/12/16 17:53:49;;;;;;;6.8;3.9;;;;;;;;;;;;;
2019/12/16 17:56:20;;;;;;;20.7;4.1;;;;;;;;;;;;;
2019/12/16 17:58:46;;;;;;;9;2.9;;;;;;;;;;;;;
2019/12/16 18:01:33;;;;;;;5.8;2.9;;;;;;;;;;;;;
2019/12/16 18:03:43;;;;;;;5.2;2.1;;;;;;;;;;;;;
2019/12/16 18:06:05;;;;;;;12.7;5.9;;;;;;;;;;;;;
2019/12/16 18:08:34;;;;;;;17.6;4.1;;;;;;;;;;;;;
2019/12/16 18:10:56;;;;;;;5.6;3.2;;;;;;;;;;;;;
2019/12/16 18:13:20;;;;;;;6.7;3.8;;;;;;;;;;;;;
2019/12/16 18:15:45;;;;;;;3.2;1.8;;;;;;;;;;;;;
2019/12/16 18:18:15;;;;;;;8.8;4;;;;;;;;;;;;;
2019/12/16 18:20:36;;;;;;;8.9;4.3;;;;;;;;;;;;;
2019/12/16 18:23:01;;;;;;;12.6;4.2;;;;;;;;;;;;;
2019/12/16 18:25:32;;;;;;;7.2;2.8;;;;;;;;;;;;;
2019/12/16 18:27:58;;;;;;;5.6;2.2;;;;;;;;;;;;;
2019/12/16 18:30:27;;;;;;;3.6;2.3;;;;;;;;;;;;;
2019/12/16 18:32:50;;;;;;;12;2.6;;;;;;;;;;;;;
2019/12/16 18:35:14;;;;;;;5.3;1.7;;;;;;;;;;;;;
2019/12/16 18:37:39;;;;;;;6.4;2.7;;;;;;;;;;;;;
2019/12/16 18:40:09;;;;;;;13;2.7;;;;;;;;;;;;;
2019/12/16 18:42:34;;;;;;;9.1;2.9;;;;;;;;;;;;;
2019/12/16 18:44:58;;;;;;;8;2.1;;;;;;;;;;;;;
2019/12/16 18:47:27;;;;;;;9.1;2.9;;;;;;;;;;;;;
2019/12/16 18:49:49;;;;;;;5.8;2.5;;;;;;;;;;;;;
2019/12/16 18:52:14;;;;;;;7.6;2.4;;;;;;;;;;;;;
2019/12/16 18:54:39;;;;;;;11.3;2.7;;;;;;;;;;;;;
2019/12/16 18:57:05;;;;;;;6.6;2.8;;;;;;;;;;;;;
2019/12/16 18:59:29;;;;;;;7.5;3.5;;;;;;;;;;;;;
2019/12/16 19:01:54;;;;;;;12.2;7.2;;;;;;;;;;;;;
2019/12/16 19:04:25;;;;;;;17.1;8.3;;;;;;;;;;;;;
2019/12/16 19:06:47;;;;;;;15;8.6;;;;;;;;;;;;;
2019/12/16 19:09:21;;;;;;;12.8;7;;;;;;;;;;;;;
2019/12/16 19:11:39;;;;;;;14.2;7.6;;;;;;;;;;;;;
2019/12/16 19:14:04;;;;;;;11.2;6.9;;;;;;;;;;;;;
2019/12/16 19:16:28;;;;;;;10;5.1;;;;;;;;;;;;;
2019/12/16 19:18:56;;;;;;;49.4;41;;;;;;;;;;;;;
2019/12/16 19:21:19;;;;;;;20.1;10.6;;;;;;;;;;;;;
2019/12/16 19:23:46;;;;;;;220.2;173.3;;;;;;;;;;;;;
2019/12/16 19:26:11;;;;;;;34;25.9;;;;;;;;;;;;;
2019/12/16 19:28:43;;;;;;;21.2;17.1;;;;;;;;;;;;;
2019/12/16 19:33:56;;;;;;;18.9;7.9;;;;;;;;;;;;;
2019/12/16 19:36:32;;;;;;;13.4;8.9;;;;;;;;;;;;;
2019/12/16 19:38:35;;;;;;;16.9;10.6;;;;;;;;;;;;;
2019/12/16 19:40:59;;;;;;;10.9;5.9;;;;;;;;;;;;;
2019/12/16 19:43:25;;;;;;;7.1;3.8;;;;;;;;;;;;;
2019/12/16 19:45:49;;;;;;;14.6;11.2;;;;;;;;;;;;;
2019/12/16 19:48:14;;;;;;;19.5;9.1;;;;;;;;;;;;;
2019/12/16 19:50:42;;;;;;;14.3;7.7;;;;;;;;;;;;;
2019/12/16 19:53:06;;;;;;;7.7;4.7;;;;;;;;;;;;;
2019/12/16 19:55:30;;;;;;;7.2;4.4;;;;;;;;;;;;;
2019/12/16 19:57:55;;;;;;;7.5;4.6;;;;;;;;;;;;;
2019/12/16 20:00:23;;;;;;;6.8;3.9;;;;;;;;;;;;;
2019/12/16 20:03:16;;;;;;;23.9;14.5;;;;;;;;;;;;;
2019/12/16 20:05:13;;;;;;;24.4;16.8;;;;;;;;;;;;;
2019/12/16 20:07:41;;;;;;;2.9;2;;;;;;;;;;;;;
2019/12/16 20:10:04;;;;;;;2.8;1.5;;;;;;;;;;;;;
2019/12/16 20:12:29;;;;;;;2.2;1;;;;;;;;;;;;;
2019/12/16 20:14:55;;;;;;;2.5;1;;;;;;;;;;;;;
2019/12/16 20:17:18;;;;;;;4.3;1.1;;;;;;;;;;;;;
2019/12/16 20:19:48;;;;;;;3.5;1.4;;;;;;;;;;;;;
2019/12/16 20:22:11;;;;;;;2.9;1.2;;;;;;;;;;;;;
2019/12/16 20:24:36;;;;;;;2.9;1.3;;;;;;;;;;;;;
2019/12/16 20:27:06;;;;;;;8.6;1.7;;;;;;;;;;;;;
2019/12/16 20:29:27;;;;;;;10.1;7.1;;;;;;;;;;;;;
2019/12/16 20:32:02;;;;;;;6.7;2.2;;;;;;;;;;;;;
2019/12/16 20:34:20;;;;;;;5.9;3.1;;;;;;;;;;;;;
2019/12/16 20:36:45;;;;;;;5;2.7;;;;;;;;;;;;;
2019/12/16 20:39:10;;;;;;;53.6;37.2;;;;;;;;;;;;;
2019/12/16 20:41:35;;;;;;;5.8;4.1;;;;;;;;;;;;;
2019/12/16 21:54:00;;;;;;;2.2;1.1;;;;;;;;;;;;;
2019/12/16 21:56:26;;;;;;;8.3;5.9;;;;;;;;;;;;;
2019/12/16 21:58:48;;;;;;;3.9;2.1;;;;;;;;;;;;;
2019/12/16 22:01:13;;;;;;;4.6;2.2;;;;;;;;;;;;;
2019/12/16 22:03:41;;;;;;;3.8;1.7;;;;;;;;;;;;;
2019/12/16 22:06:04;;;;;;;5.5;1.7;;;;;;;;;;;;;
2019/12/16 22:08:29;;;;;;;5.1;2.9;;;;;;;;;;;;;
2019/12/16 22:10:53;;;;;;;5.4;3.4;;;;;;;;;;;;;
2019/12/16 22:13:23;;;;;;;6.3;3.5;;;;;;;;;;;;;
2019/12/16 22:15:46;;;;;;;4.8;2.3;;;;;;;;;;;;;
2019/12/16 22:18:10;;;;;;;273.5;181.3;;;;;;;;;;;;;
2019/12/16 22:20:35;;;;;;;461.8;328.1;;;;;;;;;;;;;
2019/12/16 22:23:02;;;;;;;469.4;323.5;;;;;;;;;;;;;
2019/12/16 22:25:26;;;;;;;20.2;12.1;;;;;;;;;;;;;
2019/12/16 22:27:57;;;;;;;133;83.2;;;;;;;;;;;;;
2019/12/16 22:30:16;;;;;;;7.8;4.2;;;;;;;;;;;;;
2019/12/16 22:32:44;;;;;;;5.7;3;;;;;;;;;;;;;
2019/12/16 22:35:10;;;;;;;5.9;2.9;;;;;;;;;;;;;
2019/12/16 22:37:42;;;;;;;27;16;;;;;;;;;;;;;
2019/12/16 22:40:01;;;;;;;4.2;2.4;;;;;;;;;;;;;
2019/12/16 22:42:25;;;;;;;13.6;11.2;;;;;;;;;;;;;
2019/12/16 22:44:55;;;;;;;2.9;1.3;;;;;;;;;;;;;
2019/12/16 22:47:19;;;;;;;9;8.1;;;;;;;;;;;;;
2019/12/16 22:49:42;;;;;;;3.3;1.6;;;;;;;;;;;;;
2019/12/16 22:52:06;;;;;;;4.7;1.8;;;;;;;;;;;;;
2019/12/16 22:54:31;;;;;;;3.3;1.6;;;;;;;;;;;;;
2019/12/16 22:57:02;;;;;;;2.8;1.2;;;;;;;;;;;;;
2019/12/16 22:59:23;;;;;;;2.9;1.1;;;;;;;;;;;;;
2019/12/16 23:01:47;;;;;;;3.3;1.4;;;;;;;;;;;;;
2019/12/16 23:04:13;;;;;;;2.1;1.2;;;;;;;;;;;;;
2019/12/16 23:06:42;;;;;;;1.6;1.2;;;;;;;;;;;;;
2019/12/16 23:09:11;;;;;;;1.6;1;;;;;;;;;;;;;
2019/12/16 23:11:29;;;;;;;2.9;1.5;;;;;;;;;;;;;
2019/12/16 23:13:57;;;;;;;3.5;2.3;;;;;;;;;;;;;
2019/12/16 23:16:21;;;;;;;2.3;1.6;;;;;;;;;;;;;
2019/12/16 23:18:56;;;;;;;3.2;1.7;;;;;;;;;;;;;
2019/12/16 23:21:11;;;;;;;2.7;1.7;;;;;;;;;;;;;
2019/12/16 23:23:37;;;;;;;3.4;2.1;;;;;;;;;;;;;
2019/12/16 23:26:01;;;;;;;4;2;;;;;;;;;;;;;
2019/12/16 23:28:29;;;;;;;3.4;1.9;;;;;;;;;;;;;
2019/12/16 23:30:50;;;;;;;1.6;0.9;;;;;;;;;;;;;
2019/12/16 23:33:20;;;;;;;2.2;0.9;;;;;;;;;;;;;
2019/12/16 23:35:44;;;;;;;1.7;1.1;;;;;;;;;;;;;
2019/12/16 23:38:06;;;;;;;3;1.8;;;;;;;;;;;;;
2019/12/16 23:40:31;;;;;;;3.5;1.8;;;;;;;;;;;;;
2019/12/16 23:42:56;;;;;;;3.5;1.9;;;;;;;;;;;;;
2019/12/16 23:45:22;;;;;;;3.3;1.7;;;;;;;;;;;;;
2019/12/16 23:47:47;;;;;;;3.7;1.9;;;;;;;;;;;;;
2019/12/16 23:50:12;;;;;;;2.9;1.8;;;;;;;;;;;;;
2019/12/16 23:52:36;;;;;;;3.3;1.7;;;;;;;;;;;;;
2019/12/16 23:55:07;;;;;;;3.4;1.9;;;;;;;;;;;;;
2019/12/16 23:57:31;;;;;;;2.9;1.7;;;;;;;;;;;;;
